createdAt,value
2017-07-25T00:00:11.208Z,0
2017-07-25T00:01:12.724Z,0
2017-07-25T00:02:14.150Z,0
2017-07-25T00:03:15.663Z,0
2017-07-25T00:04:17.219Z,0
2017-07-25T00:05:18.723Z,0
2017-07-25T00:06:20.236Z,0
2017-07-25T00:07:21.679Z,0
2017-07-25T00:08:23.232Z,0
2017-07-25T00:09:24.894Z,0
2017-07-25T00:10:26.432Z,0
2017-07-25T00:11:27.963Z,0
2017-07-25T00:12:29.483Z,0
2017-07-25T00:13:30.979Z,0
2017-07-25T00:14:32.506Z,0
2017-07-25T00:15:34.005Z,0
2017-07-25T00:16:35.763Z,0
2017-07-25T00:17:37.266Z,0
2017-07-25T00:18:38.724Z,0
2017-07-25T00:19:40.212Z,0
2017-07-25T00:20:41.721Z,0
2017-07-25T00:21:43.231Z,0
2017-07-25T00:22:44.763Z,0
2017-07-25T00:23:46.375Z,0
2017-07-25T00:24:47.957Z,0
2017-07-25T00:25:49.509Z,0
2017-07-25T00:26:51.026Z,0
2017-07-25T00:27:52.526Z,0
2017-07-25T00:28:54.024Z,0
2017-07-25T00:29:55.543Z,0
2017-07-25T00:30:57.160Z,0
2017-07-25T00:31:58.664Z,0
2017-07-25T00:33:00.193Z,0
2017-07-25T00:34:01.765Z,0
2017-07-25T00:35:03.274Z,0
2017-07-25T00:36:04.772Z,0
2017-07-25T00:37:06.285Z,0
2017-07-25T00:38:07.781Z,0
2017-07-25T00:39:09.288Z,0
2017-07-25T00:40:10.779Z,0
2017-07-25T00:41:12.280Z,0
2017-07-25T00:42:13.826Z,0
2017-07-25T00:43:15.335Z,0
2017-07-25T00:44:16.713Z,0
2017-07-25T00:45:18.233Z,0
2017-07-25T00:46:19.834Z,0
2017-07-25T00:47:21.342Z,0
2017-07-25T00:48:22.852Z,0
2017-07-25T00:49:24.273Z,0
2017-07-25T00:50:25.773Z,0
2017-07-25T00:51:27.445Z,0
2017-07-25T00:52:28.967Z,0
2017-07-25T00:53:30.507Z,0
2017-07-25T00:54:32.014Z,0
2017-07-25T00:55:33.519Z,0
2017-07-25T00:56:35.027Z,0
2017-07-25T00:57:36.534Z,0
2017-07-25T00:58:38.201Z,0
2017-07-25T00:59:39.798Z,0
2017-07-25T01:00:41.256Z,0
2017-07-25T01:01:42.758Z,0
2017-07-25T01:02:44.310Z,0
2017-07-25T01:03:45.799Z,0
2017-07-25T01:04:47.268Z,0
2017-07-25T01:05:48.788Z,0
2017-07-25T01:06:50.293Z,0
2017-07-25T01:07:51.797Z,0
2017-07-25T01:08:53.439Z,0
2017-07-25T01:09:54.941Z,0
2017-07-25T01:10:56.364Z,0
2017-07-25T01:11:57.887Z,0
2017-07-25T01:12:59.412Z,0
2017-07-25T01:14:00.847Z,0
2017-07-25T01:15:02.373Z,0
2017-07-25T01:16:03.897Z,0
2017-07-25T01:17:05.434Z,0
2017-07-25T01:18:07.015Z,0
2017-07-25T01:19:08.567Z,0
2017-07-25T01:20:09.950Z,0
2017-07-25T01:21:11.485Z,0
2017-07-25T01:22:13.006Z,0
2017-07-25T01:23:14.514Z,0
2017-07-25T01:24:15.948Z,0
2017-07-25T01:25:17.454Z,0
2017-07-25T01:26:19.226Z,0
2017-07-25T01:27:20.751Z,0
2017-07-25T01:28:22.216Z,0
2017-07-25T01:29:23.759Z,0
2017-07-25T01:30:25.265Z,0
2017-07-25T01:31:26.690Z,0
2017-07-25T01:32:28.193Z,0
2017-07-25T01:33:29.699Z,0
2017-07-25T01:34:31.215Z,0
2017-07-25T01:35:32.791Z,0
2017-07-25T01:36:34.285Z,0
2017-07-25T01:37:35.795Z,0
2017-07-25T01:38:37.305Z,0
2017-07-25T01:39:38.806Z,0
2017-07-25T01:40:40.302Z,0
2017-07-25T01:41:41.814Z,0
2017-07-25T01:42:43.331Z,0
2017-07-25T01:43:44.911Z,0
2017-07-25T01:44:46.420Z,0
2017-07-25T01:45:47.927Z,0
2017-07-25T01:46:49.341Z,0
2017-07-25T01:47:50.852Z,0
2017-07-25T01:48:52.351Z,0
2017-07-25T01:49:53.772Z,0
2017-07-25T01:50:55.273Z,0
2017-07-25T01:51:56.905Z,0
2017-07-25T01:52:58.423Z,0
2017-07-25T01:53:59.966Z,0
2017-07-25T01:55:01.480Z,0
2017-07-25T01:56:02.977Z,0
2017-07-25T01:57:04.473Z,0
2017-07-25T01:58:06.019Z,0
2017-07-25T01:59:07.672Z,0
2017-07-25T02:00:09.171Z,0
2017-07-25T02:01:10.799Z,0
2017-07-25T02:02:12.306Z,0
2017-07-25T02:03:13.815Z,0
2017-07-25T02:04:15.240Z,0
2017-07-25T02:05:16.761Z,0
2017-07-25T02:06:18.278Z,0
2017-07-25T02:07:19.771Z,0
2017-07-25T02:08:21.273Z,0
2017-07-25T02:09:22.837Z,0
2017-07-25T02:10:24.373Z,0
2017-07-25T02:11:25.989Z,0
2017-07-25T02:12:27.524Z,0
2017-07-25T02:13:29.028Z,0
2017-07-25T02:14:30.546Z,0
2017-07-25T02:15:32.060Z,0
2017-07-25T02:16:33.566Z,0
2017-07-25T02:17:35.077Z,0
2017-07-25T02:18:36.638Z,0
2017-07-25T02:19:38.152Z,0
2017-07-25T02:20:39.713Z,0
2017-07-25T02:21:41.130Z,0
2017-07-25T02:22:42.644Z,0
2017-07-25T02:23:44.156Z,0
2017-07-25T02:24:45.654Z,0
2017-07-25T02:25:47.164Z,0
2017-07-25T02:26:48.674Z,0
2017-07-25T02:27:50.200Z,0
2017-07-25T02:28:51.810Z,0
2017-07-25T02:29:53.320Z,0
2017-07-25T02:30:54.827Z,0
2017-07-25T02:31:56.255Z,0
2017-07-25T02:32:57.766Z,0
2017-07-25T02:33:59.422Z,0
2017-07-25T02:35:00.946Z,0
2017-07-25T02:36:02.520Z,0
2017-07-25T02:37:04.026Z,0
2017-07-25T02:38:05.528Z,0
2017-07-25T02:39:07.058Z,0
2017-07-25T02:40:08.563Z,0
2017-07-25T02:41:10.171Z,0
2017-07-25T02:42:11.674Z,0
2017-07-25T02:43:13.187Z,0
2017-07-25T02:44:14.763Z,0
2017-07-25T02:45:16.359Z,0
2017-07-25T02:46:17.781Z,0
2017-07-25T02:47:19.299Z,0
2017-07-25T02:48:20.939Z,0
2017-07-25T02:49:22.485Z,0
2017-07-25T02:50:23.987Z,0
2017-07-25T02:51:25.502Z,0
2017-07-25T02:52:26.985Z,0
2017-07-25T02:53:28.536Z,0
2017-07-25T02:54:30.065Z,0
2017-07-25T02:55:31.666Z,0
2017-07-25T02:56:33.187Z,0
2017-07-25T02:57:34.709Z,0
2017-07-25T02:58:36.161Z,0
2017-07-25T02:59:37.696Z,0
2017-07-25T03:00:39.129Z,0
2017-07-25T03:01:40.633Z,0
2017-07-25T03:02:42.175Z,0
2017-07-25T03:03:43.600Z,0
2017-07-25T03:04:45.106Z,0
2017-07-25T03:05:46.613Z,0
2017-07-25T03:06:48.044Z,0
2017-07-25T03:07:49.559Z,0
2017-07-25T03:08:51.185Z,0
2017-07-25T03:09:52.690Z,0
2017-07-25T03:10:54.206Z,0
2017-07-25T03:11:55.705Z,0
2017-07-25T03:12:57.208Z,0
2017-07-25T03:13:58.724Z,0
2017-07-25T03:15:00.235Z,0
2017-07-25T03:16:01.744Z,0
2017-07-25T03:17:03.253Z,0
2017-07-25T03:18:04.798Z,0
2017-07-25T03:19:06.318Z,0
2017-07-25T03:20:07.827Z,0
2017-07-25T03:21:09.375Z,0
2017-07-25T03:22:10.881Z,0
2017-07-25T03:23:12.386Z,0
2017-07-25T03:24:13.796Z,0
2017-07-25T03:25:15.304Z,0
2017-07-25T03:26:16.815Z,4
2017-07-25T03:27:18.247Z,4
2017-07-25T03:28:19.750Z,4
2017-07-25T03:29:21.314Z,8
2017-07-25T03:30:22.823Z,8
2017-07-25T03:31:24.353Z,4
2017-07-25T03:32:25.772Z,4
2017-07-25T03:33:27.248Z,4
2017-07-25T03:34:28.844Z,4
2017-07-25T03:35:30.379Z,4
2017-07-25T03:36:31.886Z,4
2017-07-25T03:37:33.325Z,4
2017-07-25T03:38:34.780Z,8
2017-07-25T03:39:36.285Z,8
2017-07-25T03:40:37.787Z,8
2017-07-25T03:41:39.353Z,12
2017-07-25T03:42:40.867Z,12
2017-07-25T03:43:42.382Z,12
2017-07-25T03:44:44.096Z,16
2017-07-25T03:45:45.604Z,16
2017-07-25T03:46:47.078Z,16
2017-07-25T03:47:48.615Z,12
2017-07-25T03:48:50.121Z,12
2017-07-25T03:49:51.626Z,12
2017-07-25T03:50:53.152Z,16
2017-07-25T03:51:54.760Z,16
2017-07-25T03:52:56.260Z,20
2017-07-25T03:53:57.773Z,20
2017-07-25T03:54:59.192Z,16
2017-07-25T03:56:00.654Z,16
2017-07-25T03:57:02.161Z,20
2017-07-25T03:58:03.672Z,20
2017-07-25T03:59:05.200Z,28
2017-07-25T04:00:06.708Z,28
2017-07-25T04:01:08.205Z,32
2017-07-25T04:02:09.723Z,32
2017-07-25T04:03:11.222Z,32
2017-07-25T04:04:12.746Z,24
2017-07-25T04:05:14.292Z,24
2017-07-25T04:06:15.815Z,28
2017-07-25T04:07:17.440Z,28
2017-07-25T04:08:18.941Z,32
2017-07-25T04:09:20.450Z,36
2017-07-25T04:10:21.870Z,52
2017-07-25T04:11:23.367Z,48
2017-07-25T04:12:24.962Z,48
2017-07-25T04:13:26.462Z,56
2017-07-25T04:14:28.031Z,60
2017-07-25T04:15:29.564Z,52
2017-07-25T04:16:31.067Z,52
2017-07-25T04:17:32.580Z,52
2017-07-25T04:18:34.087Z,52
2017-07-25T04:19:35.604Z,72
2017-07-25T04:20:37.134Z,80
2017-07-25T04:21:38.761Z,84
2017-07-25T04:22:40.177Z,80
2017-07-25T04:23:41.637Z,68
2017-07-25T04:24:43.155Z,68
2017-07-25T04:25:44.649Z,72
2017-07-25T04:26:46.339Z,68
2017-07-25T04:27:47.850Z,76
2017-07-25T04:28:49.361Z,92
2017-07-25T04:29:50.854Z,108
2017-07-25T04:30:52.389Z,128
2017-07-25T04:31:53.897Z,128
2017-07-25T04:32:55.404Z,120
2017-07-25T04:33:56.913Z,128
2017-07-25T04:34:58.429Z,168
2017-07-25T04:35:59.934Z,220
2017-07-25T04:37:01.441Z,212
2017-07-25T04:38:02.959Z,164
2017-07-25T04:39:04.461Z,144
2017-07-25T04:40:05.960Z,128
2017-07-25T04:41:07.460Z,132
2017-07-25T04:42:08.995Z,132
2017-07-25T04:43:10.498Z,128
2017-07-25T04:44:12.028Z,140
2017-07-25T04:45:13.536Z,96
2017-07-25T04:46:15.039Z,108
2017-07-25T04:47:16.551Z,116
2017-07-25T04:48:18.121Z,88
2017-07-25T04:49:19.632Z,108
2017-07-25T04:50:21.053Z,152
2017-07-25T04:51:22.562Z,160
2017-07-25T04:52:24.081Z,176
2017-07-25T04:53:25.597Z,164
2017-07-25T04:54:26.979Z,228
2017-07-25T04:55:28.613Z,248
2017-07-25T04:56:30.190Z,284
2017-07-25T04:57:31.643Z,348
2017-07-25T04:58:33.161Z,360
2017-07-25T04:59:34.677Z,456
2017-07-25T05:00:36.188Z,456
2017-07-25T05:01:37.697Z,488
2017-07-25T05:02:39.230Z,500
2017-07-25T05:03:40.718Z,404
2017-07-25T05:04:42.246Z,428
2017-07-25T05:05:43.752Z,444
2017-07-25T05:06:45.246Z,388
2017-07-25T05:07:46.758Z,304
2017-07-25T05:08:48.262Z,312
2017-07-25T05:09:49.762Z,448
2017-07-25T05:10:51.260Z,532
2017-07-25T05:11:52.762Z,484
2017-07-25T05:12:54.318Z,508
2017-07-25T05:13:55.821Z,488
2017-07-25T05:14:57.323Z,480
2017-07-25T05:15:58.833Z,548
2017-07-25T05:17:00.340Z,580
2017-07-25T05:18:01.848Z,556
2017-07-25T05:19:03.360Z,576
2017-07-25T05:20:04.855Z,604
2017-07-25T05:21:06.358Z,624
2017-07-25T05:22:07.871Z,632
2017-07-25T05:23:09.381Z,644
2017-07-25T05:24:10.896Z,680
2017-07-25T05:25:12.289Z,692
2017-07-25T05:26:13.927Z,700
2017-07-25T05:27:15.449Z,692
2017-07-25T05:28:16.961Z,676
2017-07-25T05:29:18.455Z,624
2017-07-25T05:30:19.967Z,592
2017-07-25T05:31:21.462Z,652
2017-07-25T05:32:22.990Z,680
2017-07-25T05:33:24.503Z,700
2017-07-25T05:34:26.029Z,724
2017-07-25T05:35:27.520Z,700
2017-07-25T05:36:29.019Z,712
2017-07-25T05:37:30.519Z,732
2017-07-25T05:38:32.033Z,704
2017-07-25T05:39:33.557Z,700
2017-07-25T05:40:34.998Z,616
2017-07-25T05:41:36.451Z,504
2017-07-25T05:42:37.974Z,580
2017-07-25T05:43:39.508Z,648
2017-07-25T05:44:40.966Z,784
2017-07-25T05:45:42.447Z,884
2017-07-25T05:46:44.082Z,852
2017-07-25T05:47:45.592Z,824
2017-07-25T05:48:47.112Z,872
2017-07-25T05:49:48.543Z,972
2017-07-25T05:50:50.052Z,932
2017-07-25T05:51:51.641Z,1060
2017-07-25T05:52:53.162Z,1176
2017-07-25T05:53:54.709Z,1112
2017-07-25T05:54:56.233Z,1080
2017-07-25T05:55:57.723Z,944
2017-07-25T05:56:59.252Z,968
2017-07-25T05:58:00.779Z,984
2017-07-25T05:59:02.482Z,1024
2017-07-25T06:00:03.993Z,1060
2017-07-25T06:01:05.531Z,1072
2017-07-25T06:02:07.070Z,1092
2017-07-25T06:03:08.590Z,1072
2017-07-25T06:04:10.017Z,1064
2017-07-25T06:05:11.533Z,1064
2017-07-25T06:06:13.099Z,1056
2017-07-25T06:07:14.621Z,1080
2017-07-25T06:08:16.139Z,1076
2017-07-25T06:09:17.578Z,1104
2017-07-25T06:10:19.103Z,1112
2017-07-25T06:11:20.634Z,1144
2017-07-25T06:12:22.127Z,1176
2017-07-25T06:13:23.637Z,1200
2017-07-25T06:14:25.154Z,1220
2017-07-25T06:15:26.677Z,1212
2017-07-25T06:16:28.333Z,1184
2017-07-25T06:17:29.857Z,1160
2017-07-25T06:18:31.437Z,1144
2017-07-25T06:19:32.926Z,1136
2017-07-25T06:20:34.436Z,1144
2017-07-25T06:21:35.900Z,1140
2017-07-25T06:22:37.423Z,1120
2017-07-25T06:23:39.082Z,1096
2017-07-25T06:24:40.657Z,1076
2017-07-25T06:25:42.194Z,1060
2017-07-25T06:26:43.782Z,1052
2017-07-25T06:27:45.303Z,1040
2017-07-25T06:28:46.838Z,1048
2017-07-25T06:29:48.220Z,1084
2017-07-25T06:30:49.845Z,1024
2017-07-25T06:31:51.377Z,880
2017-07-25T06:32:52.889Z,736
2017-07-25T06:33:54.414Z,672
2017-07-25T06:34:55.930Z,812
2017-07-25T06:35:57.462Z,992
2017-07-25T06:36:58.965Z,1136
2017-07-25T06:38:00.635Z,1216
2017-07-25T06:39:02.141Z,1224
2017-07-25T06:40:03.657Z,1264
2017-07-25T06:41:05.160Z,1236
2017-07-25T06:42:06.683Z,1184
2017-07-25T06:43:08.195Z,1304
2017-07-25T06:44:09.704Z,1384
2017-07-25T06:45:11.217Z,1408
2017-07-25T06:46:12.730Z,1432
2017-07-25T06:47:14.242Z,1360
2017-07-25T06:48:15.773Z,1420
2017-07-25T06:49:17.273Z,1384
2017-07-25T06:50:18.789Z,956
2017-07-25T06:51:20.310Z,1152
2017-07-25T06:52:21.821Z,1636
2017-07-25T06:53:23.342Z,1656
2017-07-25T06:54:24.847Z,1836
2017-07-25T06:55:26.515Z,1664
2017-07-25T06:56:28.045Z,1240
2017-07-25T06:57:29.576Z,1024
2017-07-25T06:58:31.136Z,1288
2017-07-25T06:59:32.647Z,1408
2017-07-25T07:00:34.107Z,1276
2017-07-25T07:01:35.629Z,1292
2017-07-25T07:02:37.273Z,1376
2017-07-25T07:03:38.787Z,1724
2017-07-25T07:04:40.378Z,1528
2017-07-25T07:05:41.903Z,1648
2017-07-25T07:06:43.405Z,1772
2017-07-25T07:07:44.884Z,1840
2017-07-25T07:08:46.339Z,1844
2017-07-25T07:09:47.846Z,1828
2017-07-25T07:10:49.377Z,1828
2017-07-25T07:11:50.740Z,1816
2017-07-25T07:12:52.403Z,1768
2017-07-25T07:13:53.924Z,1708
2017-07-25T07:14:55.468Z,1652
2017-07-25T07:15:56.997Z,1568
2017-07-25T07:16:58.576Z,1472
2017-07-25T07:18:00.014Z,1472
2017-07-25T07:19:01.521Z,1500
2017-07-25T07:20:03.130Z,1504
2017-07-25T07:21:04.664Z,1576
2017-07-25T07:22:06.200Z,1708
2017-07-25T07:23:07.752Z,1788
2017-07-25T07:24:09.270Z,1888
2017-07-25T07:25:10.705Z,1940
2017-07-25T07:26:12.219Z,1932
2017-07-25T07:27:13.861Z,1952
2017-07-25T07:28:15.378Z,2012
2017-07-25T07:29:17.004Z,2060
2017-07-25T07:30:18.521Z,2068
2017-07-25T07:31:20.047Z,1944
2017-07-25T07:32:21.495Z,1940
2017-07-25T07:33:23.016Z,1836
2017-07-25T07:34:24.654Z,1556
2017-07-25T07:35:26.169Z,1724
2017-07-25T07:36:27.713Z,1652
2017-07-25T07:37:29.236Z,1676
2017-07-25T07:38:30.759Z,1656
2017-07-25T07:39:32.284Z,1656
2017-07-25T07:40:33.799Z,1728
2017-07-25T07:41:35.493Z,1392
2017-07-25T07:42:37.002Z,1528
2017-07-25T07:43:38.526Z,1332
2017-07-25T07:44:40.058Z,1124
2017-07-25T07:45:41.568Z,952
2017-07-25T07:46:43.127Z,876
2017-07-25T07:47:44.650Z,672
2017-07-25T07:48:46.193Z,660
2017-07-25T07:49:47.696Z,696
2017-07-25T07:50:49.206Z,828
2017-07-25T07:51:50.635Z,852
2017-07-25T07:52:52.119Z,912
2017-07-25T07:53:53.789Z,908
2017-07-25T07:54:55.302Z,904
2017-07-25T07:55:56.816Z,1276
2017-07-25T07:56:58.326Z,840
2017-07-25T07:57:59.835Z,936
2017-07-25T07:59:01.362Z,1124
2017-07-25T08:00:02.879Z,1508
2017-07-25T08:01:04.397Z,1560
2017-07-25T08:02:05.910Z,1540
2017-07-25T08:03:07.424Z,1624
2017-07-25T08:04:08.931Z,1544
2017-07-25T08:05:10.449Z,1284
2017-07-25T08:06:12.078Z,1176
2017-07-25T08:07:13.584Z,1388
2017-07-25T08:08:15.149Z,1160
2017-07-25T08:09:16.682Z,1044
2017-07-25T08:10:18.178Z,1208
2017-07-25T08:11:19.720Z,1112
2017-07-25T08:12:21.255Z,1288
2017-07-25T08:13:22.873Z,1204
2017-07-25T08:14:24.397Z,1420
2017-07-25T08:15:25.906Z,1412
2017-07-25T08:16:27.416Z,1600
2017-07-25T08:17:28.934Z,1600
2017-07-25T08:18:30.446Z,1712
2017-07-25T08:19:31.958Z,1064
2017-07-25T08:20:33.476Z,1304
2017-07-25T08:21:34.998Z,1784
2017-07-25T08:22:36.530Z,1432
2017-07-25T08:23:38.037Z,1248
2017-07-25T08:24:39.550Z,1572
2017-07-25T08:25:41.197Z,1776
2017-07-25T08:26:42.768Z,1352
2017-07-25T08:27:44.269Z,1180
2017-07-25T08:28:45.796Z,1048
2017-07-25T08:29:47.295Z,1184
2017-07-25T08:30:48.804Z,1620
2017-07-25T08:31:50.449Z,1536
2017-07-25T08:32:51.948Z,1328
2017-07-25T08:33:53.462Z,1640
2017-07-25T08:34:54.977Z,1944
2017-07-25T08:35:56.498Z,2000
2017-07-25T08:36:57.867Z,1384
2017-07-25T08:37:59.528Z,1460
2017-07-25T08:39:01.044Z,1392
2017-07-25T08:40:02.554Z,1900
2017-07-25T08:41:04.129Z,1768
2017-07-25T08:42:05.650Z,1868
2017-07-25T08:43:07.073Z,1724
2017-07-25T08:44:08.606Z,1632
2017-07-25T08:45:10.114Z,1440
2017-07-25T08:46:11.625Z,1576
2017-07-25T08:47:13.137Z,1356
2017-07-25T08:48:14.651Z,2136
2017-07-25T08:49:16.168Z,2048
2017-07-25T08:50:17.710Z,1944
2017-07-25T08:51:19.225Z,1924
2017-07-25T08:52:20.839Z,1392
2017-07-25T08:53:22.357Z,2084
2017-07-25T08:54:23.747Z,2712
2017-07-25T08:55:25.409Z,2080
2017-07-25T08:56:26.921Z,2184
2017-07-25T08:57:28.465Z,1460
2017-07-25T08:58:29.986Z,1056
2017-07-25T08:59:31.491Z,1092
2017-07-25T09:00:33.001Z,1480
2017-07-25T09:01:34.628Z,1672
2017-07-25T09:02:36.119Z,1632
2017-07-25T09:03:37.745Z,2664
2017-07-25T09:04:39.272Z,2584
2017-07-25T09:05:40.812Z,2672
2017-07-25T09:06:42.346Z,2680
2017-07-25T09:07:43.788Z,3748
2017-07-25T09:08:45.268Z,4140
2017-07-25T09:09:46.941Z,3980
2017-07-25T09:10:48.457Z,3780
2017-07-25T09:11:50.000Z,3680
2017-07-25T09:12:51.521Z,3664
2017-07-25T09:13:53.091Z,3568
2017-07-25T09:14:54.525Z,3380
2017-07-25T09:15:56.041Z,2784
2017-07-25T09:16:57.714Z,2668
2017-07-25T09:17:59.233Z,2888
2017-07-25T09:19:00.777Z,3116
2017-07-25T09:20:02.321Z,2920
2017-07-25T09:21:03.832Z,3204
2017-07-25T09:22:05.300Z,3248
2017-07-25T09:23:06.801Z,3012
2017-07-25T09:24:08.336Z,3148
2017-07-25T09:25:09.861Z,3252
2017-07-25T09:26:11.358Z,3444
2017-07-25T09:27:12.872Z,3496
2017-07-25T09:28:14.405Z,3676
2017-07-25T09:29:15.996Z,3556
2017-07-25T09:30:17.520Z,2608
2017-07-25T09:31:19.050Z,2368
2017-07-25T09:32:20.567Z,2192
2017-07-25T09:33:22.075Z,2344
2017-07-25T09:34:23.582Z,2928
2017-07-25T09:35:25.132Z,3540
2017-07-25T09:36:26.798Z,3884
2017-07-25T09:37:28.376Z,3708
2017-07-25T09:38:29.898Z,3620
2017-07-25T09:39:31.419Z,3812
2017-07-25T09:40:32.940Z,3868
2017-07-25T09:41:34.377Z,4252
2017-07-25T09:42:35.895Z,4180
2017-07-25T09:43:37.553Z,3668
2017-07-25T09:44:39.061Z,3328
2017-07-25T09:45:40.610Z,4144
2017-07-25T09:46:42.110Z,4012
2017-07-25T09:47:43.630Z,3024
2017-07-25T09:48:45.148Z,3204
2017-07-25T09:49:46.655Z,3660
2017-07-25T09:50:48.185Z,3788
2017-07-25T09:51:49.703Z,2892
2017-07-25T09:52:51.233Z,3168
2017-07-25T09:53:52.694Z,3080
2017-07-25T09:54:54.194Z,3312
2017-07-25T09:55:55.707Z,2384
2017-07-25T09:56:57.280Z,2344
2017-07-25T09:57:58.795Z,2360
2017-07-25T09:59:00.225Z,2500
2017-07-25T10:00:01.738Z,2052
2017-07-25T10:01:03.248Z,1616
2017-07-25T10:02:04.756Z,1900
2017-07-25T10:03:06.315Z,2036
2017-07-25T10:04:07.826Z,1980
2017-07-25T10:05:09.703Z,2328
2017-07-25T10:06:11.207Z,3000
2017-07-25T10:07:12.739Z,3352
2017-07-25T10:08:14.245Z,3384
2017-07-25T10:09:15.745Z,3592
2017-07-25T10:10:17.281Z,3288
2017-07-25T10:11:18.805Z,3260
2017-07-25T10:12:20.325Z,2684
2017-07-25T10:13:21.755Z,2936
2017-07-25T10:14:23.304Z,3808
2017-07-25T10:15:24.832Z,3904
2017-07-25T10:16:26.386Z,4952
2017-07-25T10:17:27.931Z,6268
2017-07-25T10:18:29.361Z,7832
2017-07-25T10:19:30.888Z,6772
2017-07-25T10:20:32.482Z,6844
2017-07-25T10:21:34.011Z,7248
2017-07-25T10:22:35.545Z,6600
2017-07-25T10:23:37.064Z,5048
2017-07-25T10:24:38.437Z,5656
2017-07-25T10:25:40.060Z,6036
2017-07-25T10:26:41.649Z,5452
2017-07-25T10:27:43.197Z,5756
2017-07-25T10:28:44.713Z,5824
2017-07-25T10:29:46.225Z,5988
2017-07-25T10:30:47.684Z,5948
2017-07-25T10:31:49.214Z,6116
2017-07-25T10:32:50.861Z,5612
2017-07-25T10:33:52.379Z,5304
2017-07-25T10:34:53.889Z,4848
2017-07-25T10:35:55.490Z,4328
2017-07-25T10:36:57.018Z,3996
2017-07-25T10:37:58.461Z,3888
2017-07-25T10:38:59.945Z,3268
2017-07-25T10:40:01.446Z,3200
2017-07-25T10:41:03.011Z,2936
2017-07-25T10:42:04.521Z,3148
2017-07-25T10:43:05.949Z,2856
2017-07-25T10:44:07.479Z,2732
2017-07-25T10:45:08.991Z,3224
2017-07-25T10:46:10.493Z,2792
2017-07-25T10:47:12.002Z,2856
2017-07-25T10:48:13.514Z,3344
2017-07-25T10:49:15.025Z,3592
2017-07-25T10:50:16.535Z,3564
2017-07-25T10:51:18.259Z,3292
2017-07-25T10:52:19.784Z,2964
2017-07-25T10:53:21.311Z,2292
2017-07-25T10:54:22.836Z,2096
2017-07-25T10:55:24.347Z,2064
2017-07-25T10:56:25.863Z,2064
2017-07-25T10:57:27.471Z,2092
2017-07-25T10:58:28.995Z,2320
2017-07-25T10:59:30.518Z,2480
2017-07-25T11:00:32.138Z,2908
2017-07-25T11:01:33.662Z,4620
2017-07-25T11:02:35.093Z,5480
2017-07-25T11:03:36.592Z,4768
2017-07-25T11:04:38.300Z,4812
2017-07-25T11:05:39.814Z,4784
2017-07-25T11:06:41.340Z,4272
2017-07-25T11:07:42.875Z,3608
2017-07-25T11:08:44.365Z,2912
2017-07-25T11:09:45.944Z,2808
2017-07-25T11:10:47.462Z,2760
2017-07-25T11:11:48.889Z,2144
2017-07-25T11:12:50.412Z,1932
2017-07-25T11:13:51.911Z,2064
2017-07-25T11:14:53.432Z,2008
2017-07-25T11:15:54.938Z,1808
2017-07-25T11:16:56.562Z,1932
2017-07-25T11:17:58.069Z,1632
2017-07-25T11:18:59.582Z,1908
2017-07-25T11:20:01.118Z,1888
2017-07-25T11:21:02.557Z,2576
2017-07-25T11:22:03.984Z,1824
2017-07-25T11:23:05.505Z,1200
2017-07-25T11:24:07.061Z,1992
2017-07-25T11:25:08.491Z,1988
2017-07-25T11:26:10.002Z,1624
2017-07-25T11:27:11.511Z,1336
2017-07-25T11:28:13.027Z,1492
2017-07-25T11:29:14.542Z,1372
2017-07-25T11:30:16.049Z,1200
2017-07-25T11:31:17.574Z,1968
2017-07-25T11:32:19.196Z,2656
2017-07-25T11:33:20.708Z,2032
2017-07-25T11:34:22.237Z,1524
2017-07-25T11:35:23.666Z,1532
2017-07-25T11:36:25.176Z,1664
2017-07-25T11:37:26.779Z,1820
2017-07-25T11:38:28.305Z,2136
2017-07-25T11:39:29.827Z,2252
2017-07-25T11:40:31.340Z,2116
2017-07-25T11:41:32.919Z,2560
2017-07-25T11:42:34.377Z,3408
2017-07-25T11:43:35.923Z,3808
2017-07-25T11:44:37.455Z,3460
2017-07-25T11:45:38.977Z,3412
2017-07-25T11:46:40.494Z,3392
2017-07-25T11:47:41.919Z,3252
2017-07-25T11:48:43.434Z,3488
2017-07-25T11:49:45.066Z,3284
2017-07-25T11:50:46.592Z,3388
2017-07-25T11:51:48.152Z,3476
2017-07-25T11:52:49.680Z,2188
2017-07-25T11:53:51.179Z,2556
2017-07-25T11:54:52.738Z,3412
2017-07-25T11:55:54.324Z,3552
2017-07-25T11:56:55.758Z,3508
2017-07-25T11:57:57.275Z,3252
2017-07-25T11:58:58.857Z,3036
2017-07-25T12:00:00.299Z,2876
2017-07-25T12:01:01.773Z,2636
2017-07-25T12:02:03.438Z,2532
2017-07-25T12:03:04.962Z,2740
2017-07-25T12:04:06.483Z,2772
2017-07-25T12:05:07.988Z,2768
2017-07-25T12:06:09.505Z,2652
2017-07-25T12:07:11.030Z,2592
2017-07-25T12:08:12.549Z,2380
2017-07-25T12:09:14.213Z,2316
2017-07-25T12:10:15.720Z,2288
2017-07-25T12:11:17.244Z,2164
2017-07-25T12:12:18.744Z,2104
2017-07-25T12:13:20.244Z,2072
2017-07-25T12:14:21.747Z,2124
2017-07-25T12:15:23.259Z,2260
2017-07-25T12:16:24.776Z,2448
2017-07-25T12:17:26.280Z,2364
2017-07-25T12:18:27.661Z,2280
2017-07-25T12:19:29.315Z,2572
2017-07-25T12:20:30.838Z,2820
2017-07-25T12:21:32.464Z,2816
2017-07-25T12:22:33.981Z,2964
2017-07-25T12:23:35.497Z,3196
2017-07-25T12:24:36.934Z,3448
2017-07-25T12:25:38.403Z,3316
2017-07-25T12:26:39.952Z,3004
2017-07-25T12:27:41.469Z,2964
2017-07-25T12:28:42.985Z,3148
2017-07-25T12:29:44.410Z,3232
2017-07-25T12:30:45.930Z,3264
2017-07-25T12:31:47.432Z,3084
2017-07-25T12:32:48.949Z,2824
2017-07-25T12:33:50.453Z,2816
2017-07-25T12:34:51.950Z,2804
2017-07-25T12:35:53.512Z,2404
2017-07-25T12:36:54.938Z,2096
2017-07-25T12:37:56.364Z,2024
2017-07-25T12:38:57.835Z,1892
2017-07-25T12:39:59.490Z,1788
2017-07-25T12:41:00.992Z,2040
2017-07-25T12:42:02.505Z,2284
2017-07-25T12:43:03.938Z,2340
2017-07-25T12:44:05.443Z,2516
2017-07-25T12:45:07.157Z,2768
2017-07-25T12:46:08.663Z,3104
2017-07-25T12:47:10.159Z,3492
2017-07-25T12:48:11.677Z,3880
2017-07-25T12:49:13.225Z,4088
2017-07-25T12:50:14.821Z,4148
2017-07-25T12:51:16.319Z,4008
2017-07-25T12:52:17.819Z,3644
2017-07-25T12:53:19.334Z,3280
2017-07-25T12:54:20.842Z,3136
2017-07-25T12:55:22.268Z,3044
2017-07-25T12:56:23.789Z,2796
2017-07-25T12:57:25.241Z,2576
2017-07-25T12:58:26.773Z,2392
2017-07-25T12:59:28.274Z,2240
2017-07-25T13:00:29.733Z,2180
2017-07-25T13:01:31.234Z,2240
2017-07-25T13:02:32.744Z,2380
2017-07-25T13:03:34.244Z,2472
2017-07-25T13:04:35.786Z,2512
2017-07-25T13:05:37.308Z,2496
2017-07-25T13:06:38.825Z,2416
2017-07-25T13:07:40.389Z,2252
2017-07-25T13:08:41.895Z,2100
2017-07-25T13:09:43.403Z,2044
2017-07-25T13:10:44.834Z,2080
2017-07-25T13:11:46.344Z,2200
2017-07-25T13:12:47.856Z,2192
2017-07-25T13:13:49.363Z,2080
2017-07-25T13:14:50.879Z,2020
2017-07-25T13:15:52.418Z,2020
2017-07-25T13:16:53.928Z,2036
2017-07-25T13:17:55.584Z,1984
2017-07-25T13:18:57.105Z,1892
2017-07-25T13:19:58.619Z,1960
2017-07-25T13:21:00.157Z,1924
2017-07-25T13:22:01.654Z,2060
2017-07-25T13:23:03.185Z,2180
2017-07-25T13:24:04.796Z,2240
2017-07-25T13:25:06.245Z,2368
2017-07-25T13:26:07.761Z,2404
2017-07-25T13:27:09.269Z,2392
2017-07-25T13:28:10.714Z,2468
2017-07-25T13:29:12.233Z,2596
2017-07-25T13:30:13.760Z,2700
2017-07-25T13:31:15.280Z,2736
2017-07-25T13:32:16.804Z,2696
2017-07-25T13:33:18.238Z,2592
2017-07-25T13:34:19.742Z,2436
2017-07-25T13:35:21.247Z,2328
2017-07-25T13:36:22.671Z,2292
2017-07-25T13:37:24.193Z,2264
2017-07-25T13:38:25.651Z,2316
2017-07-25T13:39:27.178Z,2396
2017-07-25T13:40:28.702Z,2492
2017-07-25T13:41:30.132Z,2648
2017-07-25T13:42:31.655Z,2800
2017-07-25T13:43:33.156Z,2788
2017-07-25T13:44:34.667Z,2620
2017-07-25T13:45:36.178Z,2492
2017-07-25T13:46:37.725Z,2380
2017-07-25T13:47:39.242Z,2276
2017-07-25T13:48:40.888Z,2212
2017-07-25T13:49:42.413Z,2144
2017-07-25T13:50:43.928Z,2232
2017-07-25T13:51:45.449Z,2348
2017-07-25T13:52:47.068Z,2484
2017-07-25T13:53:48.496Z,2660
2017-07-25T13:54:50.014Z,2884
2017-07-25T13:55:51.672Z,3084
2017-07-25T13:56:53.211Z,3224
2017-07-25T13:57:54.753Z,3236
2017-07-25T13:58:56.280Z,3052
2017-07-25T13:59:57.791Z,2832
2017-07-25T14:00:59.217Z,2620
2017-07-25T14:02:00.743Z,2464
2017-07-25T14:03:02.241Z,2448
2017-07-25T14:04:03.753Z,2460
2017-07-25T14:05:05.270Z,2512
2017-07-25T14:06:06.792Z,2480
2017-07-25T14:07:08.298Z,2604